sensor_id;sensor_type;location;lat;lon;timestamp;temperature;humidity
16301;DHT22;8258;51.020;4.248;2023-01-29T00:01:02;-1.60;99.90
16301;DHT22;8258;51.020;4.248;2023-01-29T00:03:29;-1.60;99.90
16301;DHT22;8258;51.020;4.248;2023-01-29T00:05:57;-1.50;99.90
16301;DHT22;8258;51.020;4.248;2023-01-29T00:08:25;-1.40;99.90
16301;DHT22;8258;51.020;4.248;2023-01-29T00:10:52;-1.40;99.90
16301;DHT22;8258;51.020;4.248;2023-01-29T00:13:25;-1.60;99.90
16301;DHT22;8258;51.020;4.248;2023-01-29T00:15:53;-1.70;99.90
16301;DHT22;8258;51.020;4.248;2023-01-29T00:18:21;-1.70;99.90
16301;DHT22;8258;51.020;4.248;2023-01-29T00:20:48;-1.80;99.90
16301;DHT22;8258;51.020;4.248;2023-01-29T00:23:16;-1.70;99.90
16301;DHT22;8258;51.020;4.248;2023-01-29T00:25:44;-1.70;99.90
16301;DHT22;8258;51.020;4.248;2023-01-29T00:28:12;-1.70;99.90
16301;DHT22;8258;51.020;4.248;2023-01-29T00:30:39;-1.60;99.90
16301;DHT22;8258;51.020;4.248;2023-01-29T00:33:07;-1.60;99.90
16301;DHT22;8258;51.020;4.248;2023-01-29T00:35:39;-1.60;99.90
16301;DHT22;8258;51.020;4.248;2023-01-29T00:38:06;-1.60;99.90
16301;DHT22;8258;51.020;4.248;2023-01-29T00:40:36;-1.70;99.90
16301;DHT22;8258;51.020;4.248;2023-01-29T00:43:18;-1.80;99.90
16301;DHT22;8258;51.020;4.248;2023-01-29T00:46:08;-1.90;99.90
16301;DHT22;8258;51.020;4.248;2023-01-29T00:48:35;-2.00;99.90
16301;DHT22;8258;51.020;4.248;2023-01-29T00:51:02;-2.00;99.90
16301;DHT22;8258;51.020;4.248;2023-01-29T00:53:29;-2.00;99.90
16301;DHT22;8258;51.020;4.248;2023-01-29T00:55:58;-2.00;99.90
16301;DHT22;8258;51.020;4.248;2023-01-29T00:58:25;-2.00;99.90
16301;DHT22;8258;51.020;4.248;2023-01-29T01:00:53;-2.00;99.90
16301;DHT22;8258;51.020;4.248;2023-01-29T01:03:21;-2.00;99.90
16301;DHT22;8258;51.020;4.248;2023-01-29T01:05:47;-2.00;99.90
16301;DHT22;8258;51.020;4.248;2023-01-29T01:08:14;-1.80;99.90
16301;DHT22;8258;51.020;4.248;2023-01-29T01:11:03;-1.70;99.90
16301;DHT22;8258;51.020;4.248;2023-01-29T01:13:31;-1.80;99.90
16301;DHT22;8258;51.020;4.248;2023-01-29T01:15:58;-1.80;99.90
16301;DHT22;8258;51.020;4.248;2023-01-29T01:18:29;-1.90;99.90
16301;DHT22;8258;51.020;4.248;2023-01-29T01:20:56;-1.90;99.90
16301;DHT22;8258;51.020;4.248;2023-01-29T01:23:24;-1.80;99.90
16301;DHT22;8258;51.020;4.248;2023-01-29T01:25:52;-1.80;99.90
16301;DHT22;8258;51.020;4.248;2023-01-29T01:28:21;-1.80;99.90
16301;DHT22;8258;51.020;4.248;2023-01-29T01:30:48;-1.90;99.90
16301;DHT22;8258;51.020;4.248;2023-01-29T01:33:15;-1.80;99.90
16301;DHT22;8258;51.020;4.248;2023-01-29T01:35:42;-1.80;99.90
16301;DHT22;8258;51.020;4.248;2023-01-29T01:38:09;-1.80;99.90
16301;DHT22;8258;51.020;4.248;2023-01-29T01:40:36;-1.80;99.90
16301;DHT22;8258;51.020;4.248;2023-01-29T01:43:09;-1.80;99.90
16301;DHT22;8258;51.020;4.248;2023-01-29T01:45:38;-1.90;99.90
16301;DHT22;8258;51.020;4.248;2023-01-29T01:48:08;-1.90;99.90
16301;DHT22;8258;51.020;4.248;2023-01-29T01:50:40;-2.00;99.90
16301;DHT22;8258;51.020;4.248;2023-01-29T01:53:11;-2.10;99.90
16301;DHT22;8258;51.020;4.248;2023-01-29T01:55:41;-2.10;99.90
16301;DHT22;8258;51.020;4.248;2023-01-29T01:58:12;-2.10;99.90
16301;DHT22;8258;51.020;4.248;2023-01-29T02:00:41;-2.20;99.90
16301;DHT22;8258;51.020;4.248;2023-01-29T02:03:08;-2.20;99.90
16301;DHT22;8258;51.020;4.248;2023-01-29T02:05:54;-2.20;99.90
16301;DHT22;8258;51.020;4.248;2023-01-29T02:08:44;-2.30;99.90
16301;DHT22;8258;51.020;4.248;2023-01-29T02:11:30;-2.30;99.90
16301;DHT22;8258;51.020;4.248;2023-01-29T02:13:57;-2.30;99.90
16301;DHT22;8258;51.020;4.248;2023-01-29T02:16:26;-2.40;99.90
16301;DHT22;8258;51.020;4.248;2023-01-29T02:18:53;-2.40;99.90
16301;DHT22;8258;51.020;4.248;2023-01-29T02:21:35;-2.40;99.90
16301;DHT22;8258;51.020;4.248;2023-01-29T02:27:13;-2.30;99.90
16301;DHT22;8258;51.020;4.248;2023-01-29T02:29:50;-2.10;99.90
16301;DHT22;8258;51.020;4.248;2023-01-29T02:32:23;-2.30;99.90
16301;DHT22;8258;51.020;4.248;2023-01-29T02:35:05;-2.20;99.90
16301;DHT22;8258;51.020;4.248;2023-01-29T02:38:03;-2.00;99.90
16301;DHT22;8258;51.020;4.248;2023-01-29T02:40:37;-1.80;99.90
16301;DHT22;8258;51.020;4.248;2023-01-29T02:43:21;-1.80;99.90
16301;DHT22;8258;51.020;4.248;2023-01-29T02:46:06;-1.70;99.90
16301;DHT22;8258;51.020;4.248;2023-01-29T02:48:41;-1.60;99.90
16301;DHT22;8258;51.020;4.248;2023-01-29T02:51:17;-1.50;99.90
16301;DHT22;8258;51.020;4.248;2023-01-29T02:53:52;-1.40;99.90
16301;DHT22;8258;51.020;4.248;2023-01-29T02:56:28;-1.20;99.90
16301;DHT22;8258;51.020;4.248;2023-01-29T02:59:00;-1.20;99.90
16301;DHT22;8258;51.020;4.248;2023-01-29T03:01:36;-1.10;99.90
16301;DHT22;8258;51.020;4.248;2023-01-29T03:04:08;-1.10;99.90
16301;DHT22;8258;51.020;4.248;2023-01-29T03:06:40;-1.10;99.90
16301;DHT22;8258;51.020;4.248;2023-01-29T03:09:11;-1.00;99.90
16301;DHT22;8258;51.020;4.248;2023-01-29T03:11:42;-0.80;99.90
16301;DHT22;8258;51.020;4.248;2023-01-29T03:14:13;-0.90;99.90
16301;DHT22;8258;51.020;4.248;2023-01-29T03:16:46;-0.90;99.90
16301;DHT22;8258;51.020;4.248;2023-01-29T03:19:19;-0.80;99.90
16301;DHT22;8258;51.020;4.248;2023-01-29T03:21:49;-0.70;99.90
16301;DHT22;8258;51.020;4.248;2023-01-29T03:24:25;-0.70;99.90
16301;DHT22;8258;51.020;4.248;2023-01-29T03:27:13;-0.60;99.90
16301;DHT22;8258;51.020;4.248;2023-01-29T03:30:00;-0.50;99.90
16301;DHT22;8258;51.020;4.248;2023-01-29T03:32:47;-0.40;99.90
16301;DHT22;8258;51.020;4.248;2023-01-29T03:35:20;-0.40;99.90
16301;DHT22;8258;51.020;4.248;2023-01-29T03:38:02;-0.30;99.90
16301;DHT22;8258;51.020;4.248;2023-01-29T03:40:35;-0.30;99.90
16301;DHT22;8258;51.020;4.248;2023-01-29T03:43:10;-0.30;99.90
16301;DHT22;8258;51.020;4.248;2023-01-29T03:45:46;-0.30;99.90
16301;DHT22;8258;51.020;4.248;2023-01-29T03:48:25;-0.40;99.90
16301;DHT22;8258;51.020;4.248;2023-01-29T03:51:00;-0.30;99.90
16301;DHT22;8258;51.020;4.248;2023-01-29T03:53:33;-0.40;99.90
16301;DHT22;8258;51.020;4.248;2023-01-29T03:56:06;-0.40;99.90
16301;DHT22;8258;51.020;4.248;2023-01-29T03:58:38;-0.40;99.90
16301;DHT22;8258;51.020;4.248;2023-01-29T04:01:12;-0.40;99.90
16301;DHT22;8258;51.020;4.248;2023-01-29T04:03:47;-0.40;99.90
16301;DHT22;8258;51.020;4.248;2023-01-29T04:06:17;-0.40;99.90
16301;DHT22;8258;51.020;4.248;2023-01-29T04:08:51;-0.30;99.90
16301;DHT22;8258;51.020;4.248;2023-01-29T04:11:22;-0.20;99.90
16301;DHT22;8258;51.020;4.248;2023-01-29T04:13:50;-0.20;99.90
16301;DHT22;8258;51.020;4.248;2023-01-29T04:16:21;-0.10;99.90
16301;DHT22;8258;51.020;4.248;2023-01-29T04:18:50;0.00;99.90
16301;DHT22;8258;51.020;4.248;2023-01-29T04:21:19;0.00;99.90
16301;DHT22;8258;51.020;4.248;2023-01-29T04:23:45;0.00;99.90
16301;DHT22;8258;51.020;4.248;2023-01-29T04:29:15;0.00;99.90
16301;DHT22;8258;51.020;4.248;2023-01-29T04:31:51;0.10;99.90
16301;DHT22;8258;51.020;4.248;2023-01-29T04:34:27;0.10;99.90
16301;DHT22;8258;51.020;4.248;2023-01-29T04:37:01;0.20;99.90
16301;DHT22;8258;51.020;4.248;2023-01-29T04:39:42;0.20;99.90
16301;DHT22;8258;51.020;4.248;2023-01-29T04:42:20;0.10;99.90
16301;DHT22;8258;51.020;4.248;2023-01-29T04:44:58;0.20;99.90
16301;DHT22;8258;51.020;4.248;2023-01-29T04:47:32;0.10;99.90
16301;DHT22;8258;51.020;4.248;2023-01-29T04:50:11;0.20;99.90
16301;DHT22;8258;51.020;4.248;2023-01-29T04:52:46;0.20;99.90
16301;DHT22;8258;51.020;4.248;2023-01-29T04:55:20;0.20;99.90
16301;DHT22;8258;51.020;4.248;2023-01-29T04:57:53;0.20;99.90
16301;DHT22;8258;51.020;4.248;2023-01-29T05:00:28;0.20;99.90
16301;DHT22;8258;51.020;4.248;2023-01-29T05:02:58;0.20;99.90
16301;DHT22;8258;51.020;4.248;2023-01-29T05:05:27;0.20;99.90
16301;DHT22;8258;51.020;4.248;2023-01-29T05:07:56;0.10;99.90
16301;DHT22;8258;51.020;4.248;2023-01-29T05:10:24;0.10;99.90
16301;DHT22;8258;51.020;4.248;2023-01-29T05:12:55;0.10;99.90
16301;DHT22;8258;51.020;4.248;2023-01-29T05:15:25;0.10;99.90
16301;DHT22;8258;51.020;4.248;2023-01-29T05:17:55;0.10;99.90
16301;DHT22;8258;51.020;4.248;2023-01-29T05:20:29;0.10;99.90
16301;DHT22;8258;51.020;4.248;2023-01-29T05:22:58;0.20;99.90
16301;DHT22;8258;51.020;4.248;2023-01-29T05:25:27;0.20;99.90
16301;DHT22;8258;51.020;4.248;2023-01-29T05:27:54;0.10;99.90
16301;DHT22;8258;51.020;4.248;2023-01-29T05:30:30;0.10;99.90
16301;DHT22;8258;51.020;4.248;2023-01-29T05:32:57;0.10;99.90
16301;DHT22;8258;51.020;4.248;2023-01-29T05:35:24;0.10;99.90
16301;DHT22;8258;51.020;4.248;2023-01-29T05:37:54;0.20;99.90
16301;DHT22;8258;51.020;4.248;2023-01-29T05:40:21;0.20;99.90
16301;DHT22;8258;51.020;4.248;2023-01-29T05:42:48;0.20;99.90
16301;DHT22;8258;51.020;4.248;2023-01-29T05:45:16;0.30;99.90
16301;DHT22;8258;51.020;4.248;2023-01-29T05:47:43;0.30;99.90
16301;DHT22;8258;51.020;4.248;2023-01-29T05:50:11;0.40;99.90
16301;DHT22;8258;51.020;4.248;2023-01-29T05:52:38;0.50;99.90
16301;DHT22;8258;51.020;4.248;2023-01-29T05:55:08;0.40;99.90
16301;DHT22;8258;51.020;4.248;2023-01-29T05:57:35;0.50;99.90
16301;DHT22;8258;51.020;4.248;2023-01-29T06:00:03;0.50;99.90
16301;DHT22;8258;51.020;4.248;2023-01-29T06:02:30;0.60;99.90
16301;DHT22;8258;51.020;4.248;2023-01-29T06:04:57;0.60;99.90
16301;DHT22;8258;51.020;4.248;2023-01-29T06:07:24;0.70;99.90
16301;DHT22;8258;51.020;4.248;2023-01-29T06:09:51;0.70;99.90
16301;DHT22;8258;51.020;4.248;2023-01-29T06:12:20;0.80;99.90
16301;DHT22;8258;51.020;4.248;2023-01-29T06:14:46;0.80;99.90
16301;DHT22;8258;51.020;4.248;2023-01-29T06:17:13;0.80;99.90
16301;DHT22;8258;51.020;4.248;2023-01-29T06:19:40;0.90;99.90
16301;DHT22;8258;51.020;4.248;2023-01-29T06:22:07;1.00;99.90
16301;DHT22;8258;51.020;4.248;2023-01-29T06:24:35;0.90;99.90
16301;DHT22;8258;51.020;4.248;2023-01-29T06:27:02;0.90;99.90
16301;DHT22;8258;51.020;4.248;2023-01-29T06:29:30;1.00;99.90
16301;DHT22;8258;51.020;4.248;2023-01-29T06:31:57;0.90;99.90
16301;DHT22;8258;51.020;4.248;2023-01-29T06:34:24;0.80;99.90
16301;DHT22;8258;51.020;4.248;2023-01-29T06:36:51;0.70;99.90
16301;DHT22;8258;51.020;4.248;2023-01-29T06:39:18;0.70;99.90
16301;DHT22;8258;51.020;4.248;2023-01-29T06:41:45;0.70;99.90
16301;DHT22;8258;51.020;4.248;2023-01-29T06:44:12;0.60;99.90
16301;DHT22;8258;51.020;4.248;2023-01-29T06:46:40;0.70;99.90
16301;DHT22;8258;51.020;4.248;2023-01-29T06:49:07;0.70;99.90
16301;DHT22;8258;51.020;4.248;2023-01-29T06:51:34;0.70;99.90
16301;DHT22;8258;51.020;4.248;2023-01-29T06:54:01;0.70;99.90
16301;DHT22;8258;51.020;4.248;2023-01-29T06:56:28;0.70;99.90
16301;DHT22;8258;51.020;4.248;2023-01-29T06:58:55;0.70;99.90
16301;DHT22;8258;51.020;4.248;2023-01-29T07:01:22;0.70;99.90
16301;DHT22;8258;51.020;4.248;2023-01-29T07:03:53;0.70;99.90
16301;DHT22;8258;51.020;4.248;2023-01-29T07:06:20;0.70;99.90
16301;DHT22;8258;51.020;4.248;2023-01-29T07:08:47;0.60;99.90
16301;DHT22;8258;51.020;4.248;2023-01-29T07:11:14;0.60;99.90
16301;DHT22;8258;51.020;4.248;2023-01-29T07:13:41;0.60;99.90
16301;DHT22;8258;51.020;4.248;2023-01-29T07:16:09;0.60;99.90
16301;DHT22;8258;51.020;4.248;2023-01-29T07:18:36;0.60;99.90
16301;DHT22;8258;51.020;4.248;2023-01-29T07:21:05;0.60;99.90
16301;DHT22;8258;51.020;4.248;2023-01-29T07:23:32;0.60;99.90
16301;DHT22;8258;51.020;4.248;2023-01-29T07:26:00;0.80;99.90
16301;DHT22;8258;51.020;4.248;2023-01-29T07:28:28;0.70;99.90
16301;DHT22;8258;51.020;4.248;2023-01-29T07:30:56;0.70;99.90
16301;DHT22;8258;51.020;4.248;2023-01-29T07:33:23;0.70;99.90
16301;DHT22;8258;51.020;4.248;2023-01-29T07:35:50;0.70;99.90
16301;DHT22;8258;51.020;4.248;2023-01-29T07:38:18;0.70;99.90
16301;DHT22;8258;51.020;4.248;2023-01-29T07:40:45;0.70;99.90
16301;DHT22;8258;51.020;4.248;2023-01-29T07:43:12;0.70;99.90
16301;DHT22;8258;51.020;4.248;2023-01-29T07:45:39;0.80;99.90
16301;DHT22;8258;51.020;4.248;2023-01-29T07:48:09;0.80;99.90
16301;DHT22;8258;51.020;4.248;2023-01-29T07:50:37;0.90;99.90
16301;DHT22;8258;51.020;4.248;2023-01-29T07:53:04;0.90;99.90
16301;DHT22;8258;51.020;4.248;2023-01-29T07:55:33;0.90;99.90
16301;DHT22;8258;51.020;4.248;2023-01-29T07:58:01;0.90;99.90
16301;DHT22;8258;51.020;4.248;2023-01-29T08:00:28;0.80;99.90
16301;DHT22;8258;51.020;4.248;2023-01-29T08:03:01;0.80;99.90
16301;DHT22;8258;51.020;4.248;2023-01-29T08:05:28;0.80;99.90
16301;DHT22;8258;51.020;4.248;2023-01-29T08:07:55;0.80;99.90
16301;DHT22;8258;51.020;4.248;2023-01-29T08:10:23;0.80;99.90
16301;DHT22;8258;51.020;4.248;2023-01-29T08:12:55;0.80;99.90
16301;DHT22;8258;51.020;4.248;2023-01-29T08:15:22;0.80;99.90
16301;DHT22;8258;51.020;4.248;2023-01-29T08:17:49;0.80;99.90
16301;DHT22;8258;51.020;4.248;2023-01-29T08:20:17;0.80;99.90
16301;DHT22;8258;51.020;4.248;2023-01-29T08:22:44;0.80;99.90
16301;DHT22;8258;51.020;4.248;2023-01-29T08:25:11;0.80;99.90
16301;DHT22;8258;51.020;4.248;2023-01-29T08:27:39;0.80;99.90
16301;DHT22;8258;51.020;4.248;2023-01-29T08:30:10;0.80;99.90
16301;DHT22;8258;51.020;4.248;2023-01-29T08:32:37;0.90;99.90
16301;DHT22;8258;51.020;4.248;2023-01-29T08:35:05;0.90;99.90
16301;DHT22;8258;51.020;4.248;2023-01-29T08:37:32;0.90;99.90
16301;DHT22;8258;51.020;4.248;2023-01-29T08:39:59;0.90;99.90
16301;DHT22;8258;51.020;4.248;2023-01-29T08:42:40;0.90;99.90
16301;DHT22;8258;51.020;4.248;2023-01-29T08:45:09;0.90;99.90
16301;DHT22;8258;51.020;4.248;2023-01-29T08:47:36;0.90;99.90
16301;DHT22;8258;51.020;4.248;2023-01-29T08:50:04;1.00;99.90
16301;DHT22;8258;51.020;4.248;2023-01-29T08:52:31;1.00;99.90
16301;DHT22;8258;51.020;4.248;2023-01-29T08:55:07;1.10;99.90
16301;DHT22;8258;51.020;4.248;2023-01-29T08:57:34;1.10;99.90
16301;DHT22;8258;51.020;4.248;2023-01-29T09:00:01;1.20;99.90
16301;DHT22;8258;51.020;4.248;2023-01-29T09:02:42;1.30;99.90
16301;DHT22;8258;51.020;4.248;2023-01-29T09:05:09;1.40;99.90
16301;DHT22;8258;51.020;4.248;2023-01-29T09:07:36;1.40;99.90
16301;DHT22;8258;51.020;4.248;2023-01-29T09:10:04;1.40;99.90
16301;DHT22;8258;51.020;4.248;2023-01-29T09:12:31;1.60;99.90
16301;DHT22;8258;51.020;4.248;2023-01-29T09:14:58;1.70;99.90
16301;DHT22;8258;51.020;4.248;2023-01-29T09:17:25;1.70;99.90
16301;DHT22;8258;51.020;4.248;2023-01-29T09:19:53;1.70;99.90
16301;DHT22;8258;51.020;4.248;2023-01-29T09:22:20;1.70;99.90
16301;DHT22;8258;51.020;4.248;2023-01-29T09:24:47;1.60;99.90
16301;DHT22;8258;51.020;4.248;2023-01-29T09:27:14;1.60;99.90
16301;DHT22;8258;51.020;4.248;2023-01-29T09:29:42;1.60;99.90
16301;DHT22;8258;51.020;4.248;2023-01-29T09:32:09;1.60;99.90
16301;DHT22;8258;51.020;4.248;2023-01-29T09:34:36;1.60;99.90
16301;DHT22;8258;51.020;4.248;2023-01-29T09:37:04;1.60;99.90
16301;DHT22;8258;51.020;4.248;2023-01-29T09:39:31;1.60;99.90
16301;DHT22;8258;51.020;4.248;2023-01-29T09:42:02;1.60;99.90
16301;DHT22;8258;51.020;4.248;2023-01-29T09:44:47;1.60;99.90
16301;DHT22;8258;51.020;4.248;2023-01-29T09:47:17;1.60;99.90
16301;DHT22;8258;51.020;4.248;2023-01-29T09:49:46;1.60;99.90
16301;DHT22;8258;51.020;4.248;2023-01-29T09:52:19;1.60;99.90
16301;DHT22;8258;51.020;4.248;2023-01-29T09:54:53;1.70;99.90
16301;DHT22;8258;51.020;4.248;2023-01-29T09:57:24;1.80;99.90
16301;DHT22;8258;51.020;4.248;2023-01-29T09:59:53;1.80;99.90
16301;DHT22;8258;51.020;4.248;2023-01-29T10:02:40;1.80;99.90
16301;DHT22;8258;51.020;4.248;2023-01-29T10:05:27;1.90;99.90
16301;DHT22;8258;51.020;4.248;2023-01-29T10:08:13;1.90;99.90
16301;DHT22;8258;51.020;4.248;2023-01-29T10:10:49;2.00;99.90
16301;DHT22;8258;51.020;4.248;2023-01-29T10:13:25;2.10;99.90
16301;DHT22;8258;51.020;4.248;2023-01-29T10:16:06;2.20;99.90
16301;DHT22;8258;51.020;4.248;2023-01-29T10:19:04;2.20;99.90
16301;DHT22;8258;51.020;4.248;2023-01-29T10:21:51;2.20;99.90
16301;DHT22;8258;51.020;4.248;2023-01-29T10:24:27;2.20;99.90
16301;DHT22;8258;51.020;4.248;2023-01-29T10:26:59;2.30;99.90
16301;DHT22;8258;51.020;4.248;2023-01-29T10:29:27;2.40;99.90
16301;DHT22;8258;51.020;4.248;2023-01-29T10:31:59;2.40;99.90
16301;DHT22;8258;51.020;4.248;2023-01-29T10:34:32;2.50;99.90
16301;DHT22;8258;51.020;4.248;2023-01-29T10:37:01;2.50;99.90
16301;DHT22;8258;51.020;4.248;2023-01-29T10:39:33;2.50;99.90
16301;DHT22;8258;51.020;4.248;2023-01-29T10:42:14;2.50;99.90
16301;DHT22;8258;51.020;4.248;2023-01-29T10:44:51;2.60;99.90
16301;DHT22;8258;51.020;4.248;2023-01-29T10:50:43;2.70;99.90
16301;DHT22;8258;51.020;4.248;2023-01-29T10:56:21;2.80;99.90
16301;DHT22;8258;51.020;4.248;2023-01-29T10:58:54;2.90;99.90
16301;DHT22;8258;51.020;4.248;2023-01-29T11:01:23;3.00;99.90
16301;DHT22;8258;51.020;4.248;2023-01-29T11:03:55;3.00;99.90
16301;DHT22;8258;51.020;4.248;2023-01-29T11:06:27;3.10;99.90
16301;DHT22;8258;51.020;4.248;2023-01-29T11:09:00;3.10;99.90
16301;DHT22;8258;51.020;4.248;2023-01-29T11:11:35;3.20;99.90
16301;DHT22;8258;51.020;4.248;2023-01-29T11:14:08;3.10;99.90
16301;DHT22;8258;51.020;4.248;2023-01-29T11:16:41;3.00;99.90
16301;DHT22;8258;51.020;4.248;2023-01-29T11:19:09;3.10;99.90
16301;DHT22;8258;51.020;4.248;2023-01-29T11:21:50;3.10;99.90
16301;DHT22;8258;51.020;4.248;2023-01-29T11:24:17;3.20;99.90
16301;DHT22;8258;51.020;4.248;2023-01-29T11:26:47;3.30;99.90
16301;DHT22;8258;51.020;4.248;2023-01-29T11:29:36;3.30;99.90
16301;DHT22;8258;51.020;4.248;2023-01-29T11:32:05;3.30;99.90
16301;DHT22;8258;51.020;4.248;2023-01-29T11:34:33;3.20;99.90
16301;DHT22;8258;51.020;4.248;2023-01-29T11:37:01;3.20;99.90
16301;DHT22;8258;51.020;4.248;2023-01-29T11:39:30;3.30;99.90
16301;DHT22;8258;51.020;4.248;2023-01-29T11:41:59;3.30;99.90
16301;DHT22;8258;51.020;4.248;2023-01-29T11:44:30;3.30;99.90
16301;DHT22;8258;51.020;4.248;2023-01-29T11:47:10;3.40;99.90
16301;DHT22;8258;51.020;4.248;2023-01-29T11:49:38;3.40;99.90
16301;DHT22;8258;51.020;4.248;2023-01-29T11:52:08;3.50;99.90
16301;DHT22;8258;51.020;4.248;2023-01-29T11:54:38;3.50;99.90
16301;DHT22;8258;51.020;4.248;2023-01-29T11:57:22;3.60;99.90
16301;DHT22;8258;51.020;4.248;2023-01-29T11:59:51;3.70;99.90
16301;DHT22;8258;51.020;4.248;2023-01-29T12:02:28;3.80;99.90
16301;DHT22;8258;51.020;4.248;2023-01-29T12:04:59;3.80;99.90
16301;DHT22;8258;51.020;4.248;2023-01-29T12:07:27;3.90;99.90
16301;DHT22;8258;51.020;4.248;2023-01-29T12:09:56;3.90;99.90
16301;DHT22;8258;51.020;4.248;2023-01-29T12:12:32;3.90;99.90
16301;DHT22;8258;51.020;4.248;2023-01-29T12:15:16;4.00;99.90
16301;DHT22;8258;51.020;4.248;2023-01-29T12:17:49;4.10;99.90
16301;DHT22;8258;51.020;4.248;2023-01-29T12:20:22;4.10;99.90
16301;DHT22;8258;51.020;4.248;2023-01-29T12:22:56;4.20;99.90
16301;DHT22;8258;51.020;4.248;2023-01-29T12:25:37;4.30;99.90
16301;DHT22;8258;51.020;4.248;2023-01-29T12:28:17;4.30;99.90
16301;DHT22;8258;51.020;4.248;2023-01-29T12:30:52;4.00;99.90
16301;DHT22;8258;51.020;4.248;2023-01-29T12:33:27;4.00;99.90
16301;DHT22;8258;51.020;4.248;2023-01-29T12:36:01;4.10;99.90
16301;DHT22;8258;51.020;4.248;2023-01-29T12:38:31;4.30;99.90
16301;DHT22;8258;51.020;4.248;2023-01-29T12:41:02;4.30;99.90
16301;DHT22;8258;51.020;4.248;2023-01-29T12:43:37;4.20;99.90
16301;DHT22;8258;51.020;4.248;2023-01-29T12:46:09;4.20;99.90
16301;DHT22;8258;51.020;4.248;2023-01-29T12:48:38;4.20;99.90
16301;DHT22;8258;51.020;4.248;2023-01-29T12:51:09;4.30;99.90
16301;DHT22;8258;51.020;4.248;2023-01-29T12:53:40;4.20;99.90
16301;DHT22;8258;51.020;4.248;2023-01-29T12:56:12;4.10;99.90
16301;DHT22;8258;51.020;4.248;2023-01-29T12:58:44;4.10;99.90
16301;DHT22;8258;51.020;4.248;2023-01-29T13:01:15;4.20;99.90
16301;DHT22;8258;51.020;4.248;2023-01-29T13:03:48;4.30;99.90
16301;DHT22;8258;51.020;4.248;2023-01-29T13:06:19;4.20;99.90
16301;DHT22;8258;51.020;4.248;2023-01-29T13:08:48;4.20;99.90
16301;DHT22;8258;51.020;4.248;2023-01-29T13:11:21;4.10;99.90
16301;DHT22;8258;51.020;4.248;2023-01-29T13:13:54;4.10;99.90
16301;DHT22;8258;51.020;4.248;2023-01-29T13:16:25;4.10;99.90
16301;DHT22;8258;51.020;4.248;2023-01-29T13:18:55;4.10;99.90
16301;DHT22;8258;51.020;4.248;2023-01-29T13:21:26;4.10;99.90
16301;DHT22;8258;51.020;4.248;2023-01-29T13:23:58;4.10;99.90
16301;DHT22;8258;51.020;4.248;2023-01-29T13:26:25;4.20;99.90
16301;DHT22;8258;51.020;4.248;2023-01-29T13:28:54;4.10;99.90
16301;DHT22;8258;51.020;4.248;2023-01-29T13:31:29;4.10;99.90
16301;DHT22;8258;51.020;4.248;2023-01-29T13:34:11;4.10;99.90
16301;DHT22;8258;51.020;4.248;2023-01-29T13:36:42;4.10;99.90
16301;DHT22;8258;51.020;4.248;2023-01-29T13:39:18;4.00;99.90
16301;DHT22;8258;51.020;4.248;2023-01-29T13:41:46;4.10;99.90
16301;DHT22;8258;51.020;4.248;2023-01-29T13:44:23;4.00;99.90
16301;DHT22;8258;51.020;4.248;2023-01-29T13:46:55;4.00;99.90
16301;DHT22;8258;51.020;4.248;2023-01-29T13:49:33;4.00;99.90
16301;DHT22;8258;51.020;4.248;2023-01-29T13:52:20;3.90;99.90
16301;DHT22;8258;51.020;4.248;2023-01-29T13:54:51;4.10;99.90
16301;DHT22;8258;51.020;4.248;2023-01-29T13:57:52;4.10;99.90
16301;DHT22;8258;51.020;4.248;2023-01-29T14:03:52;4.00;99.90
16301;DHT22;8258;51.020;4.248;2023-01-29T14:06:46;4.10;99.90
16301;DHT22;8258;51.020;4.248;2023-01-29T14:09:33;4.10;99.90
16301;DHT22;8258;51.020;4.248;2023-01-29T14:12:01;4.00;99.90
16301;DHT22;8258;51.020;4.248;2023-01-29T14:14:50;4.00;99.90
16301;DHT22;8258;51.020;4.248;2023-01-29T14:17:25;4.10;99.90
16301;DHT22;8258;51.020;4.248;2023-01-29T14:19:58;4.20;99.90
16301;DHT22;8258;51.020;4.248;2023-01-29T14:22:27;4.30;99.90
16301;DHT22;8258;51.020;4.248;2023-01-29T14:24:59;4.30;99.90
16301;DHT22;8258;51.020;4.248;2023-01-29T14:27:27;4.20;99.90
16301;DHT22;8258;51.020;4.248;2023-01-29T14:29:58;4.30;99.90
16301;DHT22;8258;51.020;4.248;2023-01-29T14:32:26;4.30;99.90
16301;DHT22;8258;51.020;4.248;2023-01-29T14:34:59;4.30;99.90
16301;DHT22;8258;51.020;4.248;2023-01-29T14:37:35;4.30;99.90
16301;DHT22;8258;51.020;4.248;2023-01-29T14:40:18;4.30;99.90
16301;DHT22;8258;51.020;4.248;2023-01-29T14:42:54;4.30;99.90
16301;DHT22;8258;51.020;4.248;2023-01-29T14:45:25;4.30;99.90
16301;DHT22;8258;51.020;4.248;2023-01-29T14:48:04;4.40;99.90
16301;DHT22;8258;51.020;4.248;2023-01-29T14:51:03;4.40;99.90
16301;DHT22;8258;51.020;4.248;2023-01-29T14:53:45;4.40;99.90
16301;DHT22;8258;51.020;4.248;2023-01-29T14:56:17;4.50;99.90
16301;DHT22;8258;51.020;4.248;2023-01-29T14:58:47;4.40;99.90
16301;DHT22;8258;51.020;4.248;2023-01-29T15:01:18;4.40;99.90
16301;DHT22;8258;51.020;4.248;2023-01-29T15:03:48;4.30;99.90
16301;DHT22;8258;51.020;4.248;2023-01-29T15:06:29;4.30;99.90
16301;DHT22;8258;51.020;4.248;2023-01-29T15:09:03;4.30;99.90
16301;DHT22;8258;51.020;4.248;2023-01-29T15:11:36;4.20;99.90
16301;DHT22;8258;51.020;4.248;2023-01-29T15:14:15;4.20;99.90
16301;DHT22;8258;51.020;4.248;2023-01-29T15:16:52;4.20;99.90
16301;DHT22;8258;51.020;4.248;2023-01-29T15:19:24;4.20;99.90
16301;DHT22;8258;51.020;4.248;2023-01-29T15:22:10;4.20;99.90
16301;DHT22;8258;51.020;4.248;2023-01-29T15:24:38;4.30;99.90
16301;DHT22;8258;51.020;4.248;2023-01-29T15:27:08;4.30;99.90
16301;DHT22;8258;51.020;4.248;2023-01-29T15:29:37;4.20;99.90
16301;DHT22;8258;51.020;4.248;2023-01-29T15:32:05;4.20;99.90
16301;DHT22;8258;51.020;4.248;2023-01-29T15:34:32;4.20;99.90
16301;DHT22;8258;51.020;4.248;2023-01-29T15:37:00;4.10;99.90
16301;DHT22;8258;51.020;4.248;2023-01-29T15:39:29;4.10;99.90
16301;DHT22;8258;51.020;4.248;2023-01-29T15:42:12;4.00;99.90
16301;DHT22;8258;51.020;4.248;2023-01-29T15:44:43;3.90;99.90
16301;DHT22;8258;51.020;4.248;2023-01-29T15:47:12;3.90;99.90
16301;DHT22;8258;51.020;4.248;2023-01-29T15:49:40;3.90;99.90
16301;DHT22;8258;51.020;4.248;2023-01-29T15:52:15;3.90;99.90
16301;DHT22;8258;51.020;4.248;2023-01-29T15:54:44;3.80;99.90
16301;DHT22;8258;51.020;4.248;2023-01-29T15:57:19;3.80;99.90
16301;DHT22;8258;51.020;4.248;2023-01-29T15:59:49;3.80;99.90
16301;DHT22;8258;51.020;4.248;2023-01-29T16:02:43;3.70;99.90
16301;DHT22;8258;51.020;4.248;2023-01-29T16:05:13;3.70;99.90
16301;DHT22;8258;51.020;4.248;2023-01-29T16:07:42;3.70;99.90
16301;DHT22;8258;51.020;4.248;2023-01-29T16:10:16;3.70;99.90
16301;DHT22;8258;51.020;4.248;2023-01-29T16:12:44;3.70;99.90
16301;DHT22;8258;51.020;4.248;2023-01-29T16:15:26;3.70;99.90
16301;DHT22;8258;51.020;4.248;2023-01-29T16:17:55;3.70;99.90
16301;DHT22;8258;51.020;4.248;2023-01-29T16:20:37;3.60;99.90
16301;DHT22;8258;51.020;4.248;2023-01-29T16:23:07;3.60;99.90
16301;DHT22;8258;51.020;4.248;2023-01-29T16:25:43;3.60;99.90
16301;DHT22;8258;51.020;4.248;2023-01-29T16:28:10;3.50;99.90
16301;DHT22;8258;51.020;4.248;2023-01-29T16:30:38;3.50;99.90
16301;DHT22;8258;51.020;4.248;2023-01-29T16:33:07;3.40;99.90
16301;DHT22;8258;51.020;4.248;2023-01-29T16:35:37;3.40;99.90
16301;DHT22;8258;51.020;4.248;2023-01-29T16:38:12;3.40;99.90
16301;DHT22;8258;51.020;4.248;2023-01-29T16:41:03;3.40;99.90
16301;DHT22;8258;51.020;4.248;2023-01-29T16:43:48;3.40;99.90